KDAY/DAY METAR and TAF weather

Enter ICAO airport designator
Station Type Date Time Source
KDAY METAR 2024/05/28 22:56 UTC NOAA

KDAY 282256Z 29014KT 10SM FEW060 SCT070 SCT090 23/10 A2996 RMK AO2 SLP138 T02280100


Station Type Date Time Source
KDAY Decoded METAR 2024/05/28 22:56 UTC NOAA

COX DAYTON INTERNATIONAL, OH, United States (KDAY) 39-54N 084-13W 305M
May 28, 2024 - 06:56 PM EDT / 2024.05.28 2256 UTC
Wind: from the WNW (290 degrees) at 16 MPH (14 KT):0
Visibility: 10 mile(s):0
Sky conditions: partly cloudy
Temperature: 73.0 F (22.8 C)
Dew Point: 50.0 F (10.0 C)
Relative Humidity: 44%
Pressure (altimeter): 29.96 in. Hg (1014 hPa)
ob: KDAY 282256Z 29014KT 10SM FEW060 SCT070 SCT090 23/10 A2996 RMK AO2 SLP138 T02280100
cycle: 23

Station Type Date Time Source
KDAY TAF 2024/05/28 18:36 UTC NOAA